Time;durP1;ratioP1;P1;durP2;ratioP2;P2;SDS_P1;SDS_P2;PMS_P1;PMS_P2;Temp;Humidity;BMP_temperature;BMP_pressure;BME280_temperature;BME280_humidity;BME280_pressure;Samples;Min_cycle;Max_cycle;Signal;HPM_P1;HPM_P2
2022/10/31 00:01:34;;;;;;;15.50;10.30;;;;;;;13.62;54.44;100677.50;107274;1293;21955;-64
2022/10/31 00:04:01;;;;;;;19.00;9.60;;;;;;;13.57;54.74;100678.14;107218;1293;21965;-64
2022/10/31 00:06:28;;;;;;;14.50;9.70;;;;;;;13.52;54.76;100681.39;107204;1293;21950;-64
2022/10/31 00:09:05;;;;;;;16.80;10.10;;;;;;;13.47;54.91;100683.08;107204;1291;21941;-65
2022/10/31 00:11:35;;;;;;;15.90;8.60;;;;;;;13.43;54.84;100685.27;108740;1291;21953;-65
2022/10/31 00:14:03;;;;;;;14.80;9.60;;;;;;;13.40;54.79;100686.55;107224;1293;21992;-65
2022/10/31 00:16:34;;;;;;;14.20;9.10;;;;;;;13.37;54.82;100680.95;107235;1293;21952;-64
2022/10/31 00:19:01;;;;;;;15.40;9.50;;;;;;;13.34;54.85;100681.36;107223;1291;21934;-66
2022/10/31 00:21:27;;;;;;;17.90;10.40;;;;;;;13.32;55.00;100681.56;107256;1293;21947;-65
2022/10/31 00:23:57;;;;;;;18.00;10.30;;;;;;;13.29;55.03;100686.55;107251;1293;21971;-66
2022/10/31 00:26:23;;;;;;;19.30;10.10;;;;;;;13.24;54.93;100685.59;107229;1293;21948;-65
2022/10/31 00:28:58;;;;;;;15.30;9.10;;;;;;;13.20;55.09;100682.85;107241;1291;21957;-65
2022/10/31 00:31:24;;;;;;;19.10;11.40;;;;;;;13.17;54.93;100680.45;107217;1293;21996;-65
2022/10/31 00:33:51;;;;;;;17.40;11.00;;;;;;;13.13;55.10;100679.10;107255;1288;21965;-64
2022/10/31 00:36:19;;;;;;;15.50;9.50;;;;;;;13.09;55.18;100678.45;107215;1293;23915;-64
2022/10/31 00:38:45;;;;;;;15.80;10.30;;;;;;;13.06;55.32;100676.03;107240;1293;21960;-65
2022/10/31 00:41:16;;;;;;;17.20;10.70;;;;;;;13.03;55.67;100675.40;107278;1293;21960;-64
2022/10/31 00:43:46;;;;;;;15.70;10.30;;;;;;;12.99;55.54;100673.70;107226;1293;21957;-64
2022/10/31 00:46:12;;;;;;;14.60;9.70;;;;;;;12.97;55.11;100674.80;107268;1292;21953;-64
2022/10/31 00:48:38;;;;;;;15.20;8.90;;;;;;;12.94;55.38;100667.63;107204;1293;21952;-64
2022/10/31 00:51:04;;;;;;;19.40;10.70;;;;;;;12.90;55.22;100662.77;107239;1293;21952;-65
2022/10/31 00:53:31;;;;;;;16.90;10.80;;;;;;;12.85;55.47;100658.80;107295;1293;21960;-64
2022/10/31 00:55:58;;;;;;;18.00;11.60;;;;;;;12.82;55.46;100658.14;107312;1290;21941;-64
2022/10/31 00:58:24;;;;;;;21.20;11.70;;;;;;;12.79;55.68;100658.20;107282;1293;21954;-64
2022/10/31 01:00:56;;;;;;;14.10;9.80;;;;;;;12.76;55.73;100665.46;107211;1287;21946;-65
2022/10/31 01:03:23;;;;;;;18.80;9.70;;;;;;;12.73;55.63;100666.76;107209;1293;21957;-64
2022/10/31 01:06:15;;;;;;;19.40;11.40;;;;;;;12.72;55.80;100666.95;107273;1291;21965;-64
2022/10/31 01:08:46;;;;;;;16.80;9.90;;;;;;;12.72;55.59;100668.54;107138;1293;22016;-64
2022/10/31 01:11:18;;;;;;;16.90;10.70;;;;;;;12.70;55.74;100662.92;107321;1291;21952;-64
2022/10/31 01:13:45;;;;;;;17.80;11.00;;;;;;;12.67;55.72;100658.55;107371;1291;23073;-64
2022/10/31 01:16:17;;;;;;;17.70;10.70;;;;;;;12.65;55.91;100654.20;107288;1291;21952;-65
2022/10/31 01:18:43;;;;;;;15.50;11.20;;;;;;;12.62;55.96;100653.19;107242;1293;21957;-65
2022/10/31 01:21:16;;;;;;;17.20;11.60;;;;;;;12.61;56.03;100654.27;107069;1289;21994;-65
2022/10/31 01:23:43;;;;;;;16.60;10.90;;;;;;;12.61;55.92;100651.45;107217;1293;21949;-65
2022/10/31 01:26:17;;;;;;;18.70;10.10;;;;;;;12.60;55.70;100650.77;107165;1293;21962;-66
2022/10/31 01:29:04;;;;;;;16.80;10.40;;;;;;;12.57;56.02;100646.07;107208;1293;21951;-65
2022/10/31 01:31:33;;;;;;;17.70;10.20;;;;;;;12.54;56.23;100645.95;107222;1293;21957;-64
2022/10/31 01:33:59;;;;;;;19.10;11.80;;;;;;;12.51;56.05;100645.63;107240;1287;21942;-65
2022/10/31 01:36:31;;;;;;;15.40;10.70;;;;;;;12.47;55.93;100651.66;107221;1293;22072;-64
2022/10/31 01:38:59;;;;;;;15.70;10.60;;;;;;;12.43;56.13;100655.42;107223;1293;21950;-65
2022/10/31 01:41:31;;;;;;;17.10;11.10;;;;;;;12.40;56.03;100655.29;107261;1293;23053;-65
2022/10/31 01:44:01;;;;;;;17.70;11.40;;;;;;;12.39;56.25;100649.52;107309;1293;22932;-66
2022/10/31 01:46:59;;;;;;;17.10;11.90;;;;;;;12.37;56.51;100642.33;107181;1292;21950;-65
2022/10/31 01:49:32;;;;;;;17.70;11.90;;;;;;;12.36;56.60;100637.08;107249;1293;21993;-63
2022/10/31 01:52:44;;;;;;;18.60;12.40;;;;;;;12.37;56.52;100641.63;107317;1291;21955;-66
2022/10/31 01:55:18;;;;;;;16.70;11.10;;;;;;;12.39;56.57;100648.63;107095;1293;21951;-63
2022/10/31 01:57:47;;;;;;;19.00;12.00;;;;;;;12.41;56.47;100649.65;107237;1293;23129;-65
2022/10/31 02:00:15;;;;;;;20.00;13.40;;;;;;;12.42;56.88;100651.22;107229;1293;21947;-64
2022/10/31 02:02:43;;;;;;;20.20;12.70;;;;;;;12.42;56.86;100651.39;105075;1293;1004229;-63
2022/10/31 02:05:12;;;;;;;18.20;12.00;;;;;;;12.42;56.60;100648.58;107096;1290;21950;-65
2022/10/31 02:08:05;;;;;;;21.00;12.00;;;;;;;12.41;56.67;100645.42;107212;1288;21944;-63
2022/10/31 02:10:36;;;;;;;19.60;11.00;;;;;;;12.41;56.75;100641.73;107280;1291;21996;-63
2022/10/31 02:13:06;;;;;;;20.10;11.80;;;;;;;12.41;56.85;100642.08;107245;1283;22014;-66
2022/10/31 02:15:33;;;;;;;19.80;13.40;;;;;;;12.41;56.79;100645.77;107270;1293;21955;-66
2022/10/31 02:18:00;;;;;;;20.70;12.80;;;;;;;12.38;56.71;100644.05;107073;1294;21945;-63
2022/10/31 02:20:29;;;;;;;18.30;12.40;;;;;;;12.37;56.70;100646.36;107299;1293;21992;-66
2022/10/31 02:23:34;;;;;;;20.00;12.40;;;;;;;12.36;56.58;100646.04;107117;1293;21942;-65
2022/10/31 02:26:26;;;;;;;19.30;11.80;;;;;;;12.34;56.55;100648.53;107054;1293;23064;-65
2022/10/31 02:29:26;;;;;;;19.70;11.40;;;;;;;12.30;56.50;100654.76;107185;1293;21966;-63
2022/10/31 02:32:05;;;;;;;18.60;11.60;;;;;;;12.27;56.64;100659.02;107136;1293;21951;-63
2022/10/31 02:34:43;;;;;;;17.10;12.30;;;;;;;12.26;56.66;100658.86;107187;1288;21973;-63
2022/10/31 02:37:14;;;;;;;20.90;11.90;;;;;;;12.23;56.65;100656.60;107243;1289;21945;-63
2022/10/31 02:39:50;;;;;;;23.20;13.00;;;;;;;12.22;56.77;100656.63;107321;1283;21972;-63
2022/10/31 02:42:17;;;;;;;19.60;11.40;;;;;;;12.20;56.80;100651.36;107292;1293;21957;-66
2022/10/31 02:45:38;;;;;;;20.10;12.90;;;;;;;12.20;56.85;100656.29;107218;1293;22039;-63
2022/10/31 02:48:09;;;;;;;20.30;12.20;;;;;;;12.20;57.05;100658.93;107143;1295;21960;-66
2022/10/31 02:50:38;;;;;;;20.00;13.10;;;;;;;12.20;57.13;100664.20;107031;1293;21953;-62
2022/10/31 02:53:04;;;;;;;20.20;12.20;;;;;;;12.21;57.01;100669.84;107284;1293;22035;-66
2022/10/31 02:55:30;;;;;;;22.10;11.60;;;;;;;12.21;57.07;100671.95;107252;1293;21997;-65
2022/10/31 02:57:58;;;;;;;18.10;12.30;;;;;;;12.21;57.07;100667.90;107241;1293;21945;-64
2022/10/31 03:00:24;;;;;;;24.00;13.90;;;;;;;12.20;57.12;100665.79;107326;1293;21943;-63
2022/10/31 03:02:56;;;;;;;21.30;13.30;;;;;;;12.17;56.92;100666.52;107133;1285;21934;-63
2022/10/31 03:05:38;;;;;;;20.80;11.70;;;;;;;12.16;56.99;100666.20;107136;1286;21958;-62
2022/10/31 03:08:13;;;;;;;19.10;12.00;;;;;;;12.15;56.96;100666.73;107274;1282;21964;-66
2022/10/31 03:10:46;;;;;;;18.20;11.90;;;;;;;12.15;57.19;100668.16;107205;1293;21948;-66
2022/10/31 03:13:31;;;;;;;18.20;12.50;;;;;;;12.13;57.06;100667.30;107263;1293;21947;-62
2022/10/31 03:16:19;;;;;;;23.80;13.10;;;;;;;12.13;57.05;100665.38;107251;1293;21957;-66
2022/10/31 03:18:45;;;;;;;17.90;12.30;;;;;;;12.12;56.97;100660.30;107289;1293;21944;-62
2022/10/31 03:21:17;;;;;;;20.10;11.30;;;;;;;12.09;56.80;100662.62;107233;1292;21951;-66
2022/10/31 03:23:43;;;;;;;23.60;12.40;;;;;;;12.05;56.85;100661.26;107285;1294;21962;-62
2022/10/31 03:26:11;;;;;;;17.10;12.60;;;;;;;12.02;56.86;100663.23;106358;1291;1002513;-67
2022/10/31 03:29:05;;;;;;;19.10;12.60;;;;;;;12.01;56.63;100667.83;107230;1293;21955;-63
2022/10/31 03:32:02;;;;;;;19.40;13.60;;;;;;;12.00;56.80;100674.33;107083;1294;21944;-62
2022/10/31 03:34:28;;;;;;;21.50;13.00;;;;;;;11.98;56.83;100675.93;107159;1291;21959;-63
2022/10/31 03:36:55;;;;;;;23.10;12.20;;;;;;;11.94;56.88;100672.12;107191;1293;24348;-62
2022/10/31 03:39:22;;;;;;;24.50;12.10;;;;;;;11.91;57.05;100666.34;107064;1293;21946;-62
2022/10/31 03:42:11;;;;;;;18.40;12.10;;;;;;;11.91;57.16;100667.76;107910;1293;21962;-65
2022/10/31 03:44:38;;;;;;;;;;;;;;;11.90;57.16;100667.07;107554;1292;22228;-67
2022/10/31 03:47:05;;;;;;;21.00;13.20;;;;;;;11.87;57.38;100663.24;107168;1285;23695;-62
2022/10/31 03:49:31;;;;;;;19.10;12.10;;;;;;;11.83;57.43;100663.98;107203;1293;21957;-63
2022/10/31 03:52:29;;;;;;;21.10;12.90;;;;;;;11.81;57.47;100661.36;107230;1293;21953;-67
2022/10/31 03:55:04;;;;;;;20.00;12.60;;;;;;;11.79;57.51;100653.30;107181;1293;21945;-67
2022/10/31 03:57:43;;;;;;;18.50;12.10;;;;;;;11.80;57.67;100649.95;106935;1294;21949;-66
2022/10/31 04:00:12;;;;;;;19.90;13.50;;;;;;;11.78;57.64;100647.33;107214;1293;22190;-65
2022/10/31 04:02:41;;;;;;;21.00;14.40;;;;;;;11.75;57.67;100641.92;107226;1293;22008;-62
2022/10/31 04:05:07;;;;;;;20.70;12.50;;;;;;;11.74;57.65;100648.09;107013;1293;23702;-66
2022/10/31 04:07:41;;;;;;;22.60;12.80;;;;;;;11.74;57.73;100647.91;107003;1294;21948;-66
2022/10/31 04:10:08;;;;;;;17.80;11.80;;;;;;;11.73;57.94;100647.23;107381;1293;22036;-67
2022/10/31 04:12:34;;;;;;;21.10;14.10;;;;;;;11.72;57.77;100650.23;107239;1294;21946;-66
2022/10/31 04:14:59;;;;;;;20.00;12.90;;;;;;;11.71;57.74;100656.04;107106;1294;21949;-62
2022/10/31 04:17:29;;;;;;;19.10;12.10;;;;;;;11.71;57.89;100659.02;107284;1293;22410;-66
2022/10/31 04:19:59;;;;;;;21.80;12.70;;;;;;;11.69;57.87;100656.95;107101;1293;23154;-62
2022/10/31 04:22:26;;;;;;;20.00;12.40;;;;;;;11.65;57.69;100661.58;107345;1289;21942;-66
2022/10/31 04:24:54;;;;;;;26.00;14.50;;;;;;;11.63;57.86;100663.18;107096;1293;21947;-66
2022/10/31 04:27:20;;;;;;;19.00;12.30;;;;;;;11.62;58.00;100660.90;107299;1293;21934;-66
2022/10/31 04:29:45;;;;;;;21.50;13.10;;;;;;;11.62;58.06;100663.20;107227;1288;21974;-66
2022/10/31 04:32:15;;;;;;;24.60;12.80;;;;;;;11.62;58.10;100665.14;107203;1293;21983;-61
2022/10/31 04:34:42;;;;;;;21.00;12.90;;;;;;;11.61;57.96;100668.83;107253;1293;21995;-62
2022/10/31 04:37:08;;;;;;;24.00;13.80;;;;;;;11.62;58.15;100673.39;107292;1293;21947;-65
2022/10/31 04:39:37;;;;;;;19.00;12.70;;;;;;;11.61;58.45;100670.41;107397;1293;23601;-64
2022/10/31 04:42:03;;;;;;;21.30;13.50;;;;;;;11.60;58.53;100670.95;107257;1292;22001;-61
2022/10/31 04:44:29;;;;;;;19.30;12.50;;;;;;;11.62;58.51;100675.31;107240;1293;21952;-66
2022/10/31 04:46:55;;;;;;;21.60;12.30;;;;;;;11.65;58.39;100678.27;107236;1292;21953;-64
2022/10/31 04:49:21;;;;;;;22.70;13.20;;;;;;;11.66;58.31;100680.02;107223;1294;22091;-63
2022/10/31 04:51:47;;;;;;;20.20;13.90;;;;;;;11.68;58.33;100684.04;107434;1293;22734;-64
2022/10/31 04:54:14;;;;;;;20.20;12.70;;;;;;;11.69;58.36;100677.16;107251;1294;21963;-63
2022/10/31 04:56:40;;;;;;;16.70;11.80;;;;;;;11.70;58.28;100679.79;107250;1294;21981;-64
2022/10/31 04:59:06;;;;;;;18.30;11.90;;;;;;;11.71;58.25;100683.29;107213;1296;21932;-63
2022/10/31 05:01:33;;;;;;;21.60;12.60;;;;;;;11.74;58.44;100686.77;107243;1293;21952;-64
2022/10/31 05:04:00;;;;;;;23.30;12.30;;;;;;;11.77;58.56;100687.98;107284;1295;21965;-64
2022/10/31 05:06:25;;;;;;;17.60;12.40;;;;;;;11.80;58.38;100689.52;107124;1294;21948;-64
2022/10/31 05:08:52;;;;;;;17.40;11.30;;;;;;;11.83;58.36;100690.35;107213;1293;21958;-65
2022/10/31 05:11:18;;;;;;;19.30;12.60;;;;;;;11.88;58.29;100689.42;107209;1294;21946;-64
2022/10/31 05:13:43;;;;;;;18.50;12.50;;;;;;;11.94;58.24;100694.09;107219;1294;21945;-63
2022/10/31 05:16:10;;;;;;;19.80;13.20;;;;;;;11.97;58.64;100697.91;107065;1292;21955;-62
2022/10/31 05:18:36;;;;;;;20.40;12.10;;;;;;;11.99;58.65;100700.02;107219;1296;21953;-62
2022/10/31 05:21:02;;;;;;;21.70;11.90;;;;;;;12.06;58.49;100706.81;107199;1293;21957;-62
2022/10/31 05:23:28;;;;;;;20.10;14.10;;;;;;;12.13;59.13;100717.61;107194;1288;21959;-62
2022/10/31 05:25:54;;;;;;;20.90;14.10;;;;;;;12.18;59.30;100721.77;107228;1295;21957;-64
2022/10/31 05:28:20;;;;;;;20.70;13.50;;;;;;;12.25;59.08;100729.25;107189;1294;21952;-64
2022/10/31 05:30:47;;;;;;;26.00;12.90;;;;;;;12.32;59.12;100732.67;107257;1296;21967;-63
2022/10/31 05:33:14;;;;;;;21.30;13.70;;;;;;;12.40;59.08;100732.73;107175;1293;21955;-64
2022/10/31 05:35:39;;;;;;;22.90;13.60;;;;;;;12.48;59.21;100737.89;107268;1294;21964;-64
2022/10/31 05:38:05;;;;;;;22.10;14.60;;;;;;;12.54;59.46;100739.92;107224;1294;21959;-61
2022/10/31 05:40:31;;;;;;;24.30;15.20;;;;;;;12.60;59.61;100743.88;107303;1294;21945;-62
2022/10/31 05:42:59;;;;;;;22.70;14.30;;;;;;;12.65;59.28;100745.39;107192;1291;21953;-63
2022/10/31 05:45:26;;;;;;;22.20;13.10;;;;;;;12.73;59.51;100741.05;107199;1292;21959;-64
2022/10/31 05:47:57;;;;;;;21.30;12.80;;;;;;;12.83;59.64;100739.67;107232;1295;21995;-65
2022/10/31 05:50:23;;;;;;;20.20;12.90;;;;;;;12.91;59.30;100740.42;107309;1291;21959;-63
2022/10/31 05:52:55;;;;;;;20.40;13.90;;;;;;;12.98;59.12;100738.54;107201;1293;21987;-64
2022/10/31 05:55:20;;;;;;;21.50;14.10;;;;;;;13.07;59.09;100741.20;107286;1295;22001;-65
2022/10/31 05:57:46;;;;;;;18.70;12.50;;;;;;;13.15;58.94;100740.55;107304;1285;21949;-64
2022/10/31 06:00:13;;;;;;;21.20;12.80;;;;;;;13.23;59.03;100738.66;107190;1294;21969;-63
2022/10/31 06:02:40;;;;;;;19.60;13.30;;;;;;;13.31;59.14;100733.57;107353;1291;21954;-65
2022/10/31 06:05:06;;;;;;;20.10;12.50;;;;;;;13.39;59.76;100731.86;107302;1291;21954;-63
2022/10/31 06:07:35;;;;;;;17.50;12.30;;;;;;;13.49;59.39;100734.33;107395;1291;22009;-62
2022/10/31 06:10:01;;;;;;;19.30;13.00;;;;;;;13.59;59.63;100737.48;107356;1291;23066;-64
2022/10/31 06:12:28;;;;;;;19.20;12.40;;;;;;;13.69;59.72;100738.37;107246;1291;21959;-64
2022/10/31 06:14:55;;;;;;;16.90;11.70;;;;;;;13.77;59.64;100738.04;107164;1295;21952;-64
2022/10/31 06:17:23;;;;;;;19.00;12.80;;;;;;;13.82;59.55;100738.64;107128;1295;21991;-64
2022/10/31 06:19:49;;;;;;;17.90;12.40;;;;;;;13.87;59.29;100742.62;107195;1295;21942;-64
2022/10/31 06:22:17;;;;;;;16.70;12.20;;;;;;;13.90;59.30;100746.60;107240;1291;21946;-63
2022/10/31 06:24:44;;;;;;;19.50;11.60;;;;;;;13.92;59.39;100748.48;107233;1296;21925;-63
2022/10/31 06:27:11;;;;;;;15.90;10.90;;;;;;;13.95;59.25;100749.67;104194;1295;4070778;-64
2022/10/31 06:29:39;;;;;;;16.10;12.10;;;;;;;13.98;59.55;100746.43;107254;1292;21947;-62
2022/10/31 06:32:04;;;;;;;15.60;11.60;;;;;;;14.02;59.36;100746.70;107270;1292;22017;-64
2022/10/31 06:34:31;;;;;;;17.20;10.50;;;;;;;14.08;59.64;100751.35;107240;1293;21949;-63
2022/10/31 06:36:58;;;;;;;13.50;9.80;;;;;;;14.14;59.80;100752.80;107269;1291;21952;-65
2022/10/31 06:39:28;;;;;;;14.80;10.40;;;;;;;14.20;59.93;100751.44;107213;1291;23822;-65
2022/10/31 06:41:53;;;;;;;15.80;11.40;;;;;;;14.27;59.68;100750.93;107221;1293;21966;-63
2022/10/31 06:44:20;;;;;;;15.80;10.30;;;;;;;14.38;59.78;100757.06;107229;1292;21960;-65
2022/10/31 06:46:47;;;;;;;16.20;10.20;;;;;;;14.48;59.67;100759.14;107358;1291;21933;-65
2022/10/31 06:49:13;;;;;;;13.30;9.50;;;;;;;14.57;59.42;100758.41;107285;1294;21945;-67
2022/10/31 06:51:39;;;;;;;13.30;10.10;;;;;;;14.59;59.27;100758.69;107304;1292;21950;-62
2022/10/31 06:54:05;;;;;;;16.80;10.50;;;;;;;14.68;59.27;100755.34;107188;1292;21949;-65
2022/10/31 06:56:31;;;;;;;14.60;10.60;;;;;;;14.81;59.27;100760.35;107265;1291;21948;-65
2022/10/31 06:58:57;;;;;;;14.90;9.20;;;;;;;14.91;59.10;100763.48;107449;1289;21943;-63
2022/10/31 07:01:24;;;;;;;13.30;9.70;;;;;;;14.99;59.03;100768.75;107167;1285;21938;-65
2022/10/31 07:03:51;;;;;;;16.80;9.80;;;;;;;15.07;58.89;100769.80;107311;1288;21961;-66
2022/10/31 07:06:17;;;;;;;13.60;10.20;;;;;;;15.15;58.97;100769.07;107183;1290;21953;-62
2022/10/31 07:08:47;;;;;;;14.20;10.40;;;;;;;15.25;58.91;100766.35;107133;1293;21951;-66
2022/10/31 07:11:14;;;;;;;14.40;9.50;;;;;;;15.34;58.73;100767.73;107202;1292;21989;-66
2022/10/31 07:13:40;;;;;;;14.30;9.70;;;;;;;15.42;58.54;100762.74;107200;1291;21962;-65
2022/10/31 07:16:07;;;;;;;14.50;9.50;;;;;;;15.51;58.54;100757.89;107193;1291;21949;-65
2022/10/31 07:18:33;;;;;;;15.50;9.90;;;;;;;15.57;58.48;100751.01;107230;1291;21958;-66
2022/10/31 07:21:01;;;;;;;11.50;9.20;;;;;;;15.63;58.27;100751.92;107199;1294;21956;-64
2022/10/31 07:23:26;;;;;;;15.80;10.10;;;;;;;15.66;58.09;100751.30;107008;1290;21930;-63
2022/10/31 07:25:56;;;;;;;14.00;10.10;;;;;;;15.75;58.09;100754.23;107194;1291;22134;-66
2022/10/31 07:28:23;;;;;;;12.00;9.30;;;;;;;15.81;58.08;100753.89;107363;1292;21969;-64
2022/10/31 07:30:52;;;;;;;16.60;10.70;;;;;;;15.92;58.11;100755.39;107268;1287;21996;-66
2022/10/31 07:33:18;;;;;;;13.20;10.10;;;;;;;16.04;58.06;100751.68;107280;1292;21952;-65
2022/10/31 07:35:44;;;;;;;14.20;10.40;;;;;;;16.20;58.00;100750.52;107194;1293;21948;-65
2022/10/31 07:38:10;;;;;;;15.00;9.40;;;;;;;16.35;57.70;100743.52;107188;1293;23706;-66
2022/10/31 07:40:36;;;;;;;12.70;8.60;;;;;;;16.42;57.44;100745.61;107191;1293;21998;-64
2022/10/31 07:43:03;;;;;;;13.20;8.50;;;;;;;16.47;57.15;100745.10;107266;1291;21949;-65
2022/10/31 07:45:31;;;;;;;14.60;8.40;;;;;;;16.53;57.02;100743.70;107228;1293;21943;-65
2022/10/31 07:47:56;;;;;;;14.70;9.00;;;;;;;16.64;56.92;100738.19;107275;1290;21962;-66
2022/10/31 07:50:26;;;;;;;11.40;8.70;;;;;;;16.77;56.76;100738.66;107172;1288;21945;-65
2022/10/31 07:53:18;;;;;;;13.40;8.20;;;;;;;16.88;56.33;100743.64;107277;1291;21951;-64
2022/10/31 07:55:44;;;;;;;13.40;8.60;;;;;;;17.02;56.16;100743.36;107271;1291;21947;-65
2022/10/31 07:58:16;;;;;;;12.70;9.00;;;;;;;17.19;55.97;100741.55;107265;1292;21972;-65
2022/10/31 08:00:44;;;;;;;13.80;9.00;;;;;;;17.35;55.96;100744.21;107291;1291;21943;-65
2022/10/31 08:03:13;;;;;;;10.80;8.40;;;;;;;17.51;55.51;100746.66;107261;1291;21937;-64
2022/10/31 08:05:40;;;;;;;14.00;9.70;;;;;;;17.63;55.05;100745.71;107435;1291;23147;-66
2022/10/31 08:08:07;;;;;;;14.20;9.90;;;;;;;17.75;54.99;100750.41;107228;1291;21995;-64
2022/10/31 08:10:33;;;;;;;14.70;10.10;;;;;;;17.81;54.55;100750.21;107185;1291;21953;-64
2022/10/31 08:13:03;;;;;;;14.80;8.90;;;;;;;17.74;54.23;100754.02;107222;1292;21955;-66
2022/10/31 08:15:29;;;;;;;11.30;8.90;;;;;;;17.64;54.33;100755.27;107301;1293;21955;-65
2022/10/31 08:17:56;;;;;;;13.00;9.50;;;;;;;17.59;54.27;100757.74;107161;1289;21992;-66
2022/10/31 08:20:22;;;;;;;14.00;9.60;;;;;;;17.55;53.93;100759.67;107105;1294;22119;-66
2022/10/31 08:23:04;;;;;;;14.20;8.70;;;;;;;17.54;54.17;100765.73;107264;1291;21956;-65
2022/10/31 08:25:32;;;;;;;15.20;8.40;;;;;;;17.55;54.41;100769.77;107385;1289;21969;-66
2022/10/31 08:27:59;;;;;;;14.60;9.30;;;;;;;17.53;54.17;100770.02;107255;1292;21953;-65
2022/10/31 08:30:27;;;;;;;15.80;8.80;;;;;;;17.51;54.22;100767.77;107187;1293;23751;-66
2022/10/31 08:33:14;;;;;;;14.00;8.20;;;;;;;17.55;54.16;100765.52;107217;1293;23250;-65
2022/10/31 08:35:41;;;;;;;11.30;8.00;;;;;;;17.54;53.69;100771.05;107301;1293;21965;-65
2022/10/31 08:38:08;;;;;;;14.60;7.90;;;;;;;17.55;53.35;100773.14;107290;1292;21995;-65
2022/10/31 08:40:37;;;;;;;13.10;7.20;;;;;;;17.55;53.36;100772.27;107186;1292;21955;-65
2022/10/31 08:43:11;;;;;;;9.40;7.10;;;;;;;17.58;53.37;100771.98;107228;1288;21940;-66
2022/10/31 08:45:37;;;;;;;12.00;7.20;;;;;;;17.61;53.14;100779.15;107269;1290;23606;-65
2022/10/31 08:48:05;;;;;;;11.00;6.90;;;;;;;17.64;52.72;100777.09;107255;1292;21949;-63
2022/10/31 08:50:32;;;;;;;10.40;6.70;;;;;;;17.64;52.83;100772.14;107265;1293;23144;-63
2022/10/31 08:53:07;;;;;;;10.50;7.00;;;;;;;17.72;52.91;100773.98;107121;1286;21946;-65
2022/10/31 08:55:41;;;;;;;12.60;6.90;;;;;;;17.85;53.02;100775.44;107282;1291;21953;-67
2022/10/31 08:58:10;;;;;;;10.80;6.70;;;;;;;18.04;52.42;100775.32;107356;1291;21946;-63
2022/10/31 09:00:36;;;;;;;9.80;6.30;;;;;;;18.25;52.49;100775.80;107363;1291;21964;-64
2022/10/31 09:03:04;;;;;;;11.40;6.40;;;;;;;18.55;52.20;100779.09;107281;1292;21962;-63
2022/10/31 09:05:31;;;;;;;9.20;6.40;;;;;;;18.75;51.11;100784.15;107277;1293;21956;-65
2022/10/31 09:07:59;;;;;;;11.50;6.90;;;;;;;18.87;51.32;100782.46;107218;1292;21942;-65
2022/10/31 09:10:25;;;;;;;8.40;5.20;;;;;;;19.03;49.87;100777.77;107370;1291;21961;-64
2022/10/31 09:13:01;;;;;;;7.80;5.90;;;;;;;19.06;49.07;100777.77;107355;1291;21972;-64
2022/10/31 09:15:28;;;;;;;12.90;6.50;;;;;;;19.07;48.50;100776.86;107085;1285;21963;-64
2022/10/31 09:17:55;;;;;;;9.80;6.30;;;;;;;19.24;49.52;100775.45;107077;1292;21945;-65
2022/10/31 09:20:22;;;;;;;9.60;5.90;;;;;;;19.43;49.10;100774.45;107176;1292;22072;-64
2022/10/31 09:22:48;;;;;;;9.10;5.90;;;;;;;19.54;48.23;100773.30;107157;1293;21962;-65
2022/10/31 09:25:16;;;;;;;14.80;7.50;;;;;;;19.58;48.18;100774.37;107045;1291;21956;-66
2022/10/31 09:27:42;;;;;;;10.70;5.90;;;;;;;19.56;47.79;100773.01;107203;1292;21974;-65
2022/10/31 09:30:09;;;;;;;10.60;6.20;;;;;;;19.52;47.53;100774.79;107189;1292;21939;-64
2022/10/31 09:32:35;;;;;;;10.10;5.20;;;;;;;19.66;47.93;100767.79;107199;1292;22010;-64
2022/10/31 09:35:01;;;;;;;8.10;4.40;;;;;;;19.71;47.18;100767.19;107191;1291;21998;-64
2022/10/31 09:37:28;;;;;;;8.60;4.70;;;;;;;19.72;47.64;100770.36;107259;1291;21963;-64
2022/10/31 09:39:54;;;;;;;7.90;4.10;;;;;;;19.67;47.74;100773.41;107216;1292;21953;-67
2022/10/31 09:42:46;;;;;;;8.00;4.30;;;;;;;19.64;46.78;100768.58;107263;1292;23003;-64
2022/10/31 09:45:18;;;;;;;7.80;4.80;;;;;;;19.69;45.92;100769.41;107323;1291;22738;-64
2022/10/31 09:48:04;;;;;;;7.00;4.50;;;;;;;19.83;46.36;100769.55;107279;1293;21947;-62
2022/10/31 09:50:42;;;;;;;8.00;4.30;;;;;;;20.03;46.20;100773.98;107264;1292;21991;-64
2022/10/31 09:53:19;;;;;;;7.50;4.40;;;;;;;20.24;45.16;100771.28;107322;1292;21958;-64
2022/10/31 09:55:48;;;;;;;7.50;4.60;;;;;;;20.44;45.33;100771.41;107079;1294;21951;-63
2022/10/31 09:58:19;;;;;;;8.00;4.60;;;;;;;20.48;43.47;100765.85;107241;1290;21998;-65
2022/10/31 10:00:44;;;;;;;;;;;;;;;20.57;43.92;100764.35;107113;1293;22307;-63
2022/10/31 10:03:38;;;;;;;7.10;4.00;;;;;;;20.68;43.84;100765.11;107327;1290;21963;-65
2022/10/31 10:06:16;;;;;;;7.10;3.60;;;;;;;20.74;42.56;100763.56;107226;1292;21957;-63
2022/10/31 10:08:42;;;;;;;6.30;3.80;;;;;;;20.79;43.14;100763.89;107276;1282;21963;-68
2022/10/31 10:11:29;;;;;;;10.90;3.90;;;;;;;20.88;43.79;100761.48;107266;1285;23640;-66
2022/10/31 10:14:08;;;;;;;9.70;6.30;;;;;;;20.98;43.34;100769.21;107426;1290;21994;-64
2022/10/31 10:17:06;;;;;;;8.30;4.10;;;;;;;21.10;42.73;100773.79;107311;1290;21963;-64
2022/10/31 10:19:55;;;;;;;4.40;2.90;;;;;;;21.19;42.26;100772.09;107220;1293;21947;-68
2022/10/31 10:22:37;;;;;;;6.50;3.40;;;;;;;21.17;41.16;100774.30;107259;1291;21948;-68
2022/10/31 10:25:21;;;;;;;7.10;3.30;;;;;;;21.13;40.49;100775.23;107252;1293;23753;-66
2022/10/31 10:28:23;;;;;;;4.80;2.90;;;;;;;21.15;41.09;100772.83;107291;1288;22000;-67
2022/10/31 10:30:52;;;;;;;4.80;3.00;;;;;;;21.21;40.85;100773.37;107145;1292;21956;-67
2022/10/31 10:33:21;;;;;;;5.00;2.50;;;;;;;21.27;40.41;100772.00;107265;1291;23450;-65
2022/10/31 10:36:11;;;;;;;4.50;3.00;;;;;;;21.28;39.75;100768.79;107252;1291;22541;-66
2022/10/31 10:38:54;;;;;;;7.20;3.10;;;;;;;21.38;39.95;100768.81;107276;1289;21977;-65
2022/10/31 10:41:21;;;;;;;5.50;3.00;;;;;;;21.56;40.94;100765.36;107212;1291;21951;-66
2022/10/31 10:43:50;;;;;;;4.90;2.70;;;;;;;21.64;39.78;100763.74;107318;1291;23629;-66
2022/10/31 10:49:40;;;;;;;4.60;2.50;;;;;;;21.76;40.29;100766.66;107234;1293;21937;-63
2022/10/31 10:52:31;;;;;;;6.50;2.90;;;;;;;21.73;37.71;100766.50;107204;1289;21958;-65
2022/10/31 10:55:29;;;;;;;;;;;;;;;21.73;38.35;100767.20;107197;1293;21923;-65
2022/10/31 10:57:57;;;;;;;5.30;2.80;;;;;;;21.81;38.33;100770.00;106996;1293;21971;-65
2022/10/31 11:00:31;;;;;;;5.30;2.60;;;;;;;21.79;36.38;100772.77;107406;1292;21946;-64
2022/10/31 11:02:57;;;;;;;7.30;2.10;;;;;;;21.85;37.98;100772.30;107393;1291;23840;-67
2022/10/31 11:05:23;;;;;;;4.60;2.30;;;;;;;21.88;38.35;100771.08;106903;1293;21951;-62
2022/10/31 11:07:53;;;;;;;4.60;2.40;;;;;;;21.86;37.67;100768.67;107226;1293;22021;-63
2022/10/31 11:10:20;;;;;;;6.60;2.80;;;;;;;21.84;37.45;100769.48;107338;1291;21962;-64
2022/10/31 11:12:58;;;;;;;7.50;3.50;;;;;;;21.88;37.66;100772.64;107294;1291;21957;-64
2022/10/31 11:15:25;;;;;;;8.50;3.70;;;;;;;21.90;37.94;100770.59;107203;1293;21954;-63
2022/10/31 11:17:52;;;;;;;20.50;15.00;;;;;;;21.86;39.00;100770.23;107139;1293;21952;-65
2022/10/31 11:20:18;;;;;;;21.60;14.00;;;;;;;21.89;38.71;100769.73;107286;1291;21954;-66
2022/10/31 11:22:45;;;;;;;11.40;7.30;;;;;;;21.90;38.04;100763.96;107183;1293;21970;-64
2022/10/31 11:25:24;;;;;;;8.60;6.00;;;;;;;21.94;37.38;100768.08;107232;1293;21960;-64
2022/10/31 11:28:00;;;;;;;6.40;4.10;;;;;;;21.91;37.72;100776.59;107241;1293;21995;-65